createdAt,value
2022-08-14T00:02:01.561Z,16.75
2022-08-14T00:04:34.932Z,18.48
2022-08-14T00:07:14.242Z,20.38
2022-08-14T00:09:55.510Z,17.45
2022-08-14T00:12:33.551Z,18.48
2022-08-14T00:15:09.341Z,18.67
2022-08-14T00:17:47.936Z,17.95
2022-08-14T00:20:24.211Z,20.02
2022-08-14T00:23:16.367Z,20.38
2022-08-14T00:28:36.001Z,18.73
2022-08-14T00:31:07.997Z,19.00
2022-08-14T00:33:50.671Z,19.50
2022-08-14T00:36:36.112Z,18.98
2022-08-14T00:39:09.874Z,18.20
2022-08-14T00:41:39.054Z,20.00
2022-08-14T00:44:08.371Z,19.48
2022-08-14T00:46:37.919Z,17.98
2022-08-14T00:49:11.591Z,18.98
2022-08-14T00:51:44.529Z,19.27
2022-08-14T00:54:21.425Z,18.15
2022-08-14T00:56:55.589Z,15.80
2022-08-14T00:59:25.494Z,16.48
2022-08-14T01:01:57.201Z,18.20
2022-08-14T01:04:38.297Z,17.17
2022-08-14T01:07:20.895Z,16.20
2022-08-14T01:09:53.429Z,17.02
2022-08-14T01:12:26.306Z,16.15
2022-08-14T01:14:58.193Z,17.20
2022-08-14T01:17:50.028Z,17.98
2022-08-14T01:20:39.792Z,17.55
2022-08-14T01:23:16.219Z,18.73
2022-08-14T01:25:49.215Z,18.10
2022-08-14T01:28:46.695Z,15.98
2022-08-14T01:31:12.568Z,17.73
2022-08-14T01:33:59.662Z,17.98
2022-08-14T01:36:36.831Z,20.00
2022-08-14T01:39:12.914Z,20.77
2022-08-14T01:41:43.923Z,18.13
2022-08-14T01:44:32.138Z,17.00
2022-08-14T01:47:16.598Z,20.00
2022-08-14T01:49:58.990Z,19.70
2022-08-14T01:52:34.012Z,17.67
2022-08-14T01:55:18.577Z,16.83
2022-08-14T01:58:00.166Z,17.25
2022-08-14T02:00:38.926Z,18.20
2022-08-14T02:03:08.228Z,18.48
2022-08-14T02:05:38.948Z,17.48
2022-08-14T02:08:10.051Z,18.42
2022-08-14T02:10:47.077Z,17.40
2022-08-14T02:13:19.759Z,17.77
2022-08-14T02:15:48.638Z,16.75
2022-08-14T02:18:18.770Z,17.45
2022-08-14T02:20:49.085Z,18.75
2022-08-14T02:23:29.129Z,20.20
2022-08-14T02:26:24.214Z,18.27
2022-08-14T02:28:58.046Z,19.52
2022-08-14T02:31:42.350Z,19.73
2022-08-14T02:34:21.909Z,19.70
2022-08-14T02:37:04.720Z,19.85
2022-08-14T02:39:37.107Z,19.45
2022-08-14T02:42:13.064Z,18.65
2022-08-14T02:44:49.327Z,19.85
2022-08-14T02:47:21.266Z,19.00
2022-08-14T02:49:54.941Z,19.98
2022-08-14T02:52:56.776Z,20.10
2022-08-14T02:55:19.689Z,19.85
2022-08-14T02:57:58.263Z,21.23
2022-08-14T03:00:33.560Z,19.70
2022-08-14T03:03:03.022Z,21.98
2022-08-14T03:05:37.141Z,20.23
2022-08-14T03:08:15.324Z,20.08
2022-08-14T03:10:49.378Z,18.35
2022-08-14T03:13:21.419Z,18.25
2022-08-14T03:15:56.002Z,20.55
2022-08-14T03:18:31.150Z,20.08
2022-08-14T03:21:02.845Z,18.65
2022-08-14T03:23:38.104Z,21.38
2022-08-14T03:26:12.599Z,20.67
2022-08-14T03:28:50.132Z,20.40
2022-08-14T03:31:22.187Z,19.45
2022-08-14T03:33:54.685Z,19.20
2022-08-14T03:37:39.038Z,20.98
2022-08-14T03:39:22.079Z,19.13
2022-08-14T03:41:53.665Z,20.30
2022-08-14T03:45:19.936Z,19.20
2022-08-14T03:47:12.430Z,21.25
2022-08-14T03:49:46.074Z,19.38
2022-08-14T03:52:37.823Z,20.40
2022-08-14T03:55:08.353Z,19.75
2022-08-14T03:57:38.049Z,21.17
2022-08-14T04:00:42.995Z,19.23
2022-08-14T04:03:01.615Z,19.35
2022-08-14T04:05:38.046Z,18.52
2022-08-14T04:08:29.354Z,17.33
2022-08-14T04:11:01.044Z,19.48
2022-08-14T04:13:32.026Z,20.10
2022-08-14T04:16:06.793Z,20.00
2022-08-14T04:21:11.354Z,20.38
2022-08-14T04:23:40.004Z,20.67
2022-08-14T04:26:14.915Z,20.48
2022-08-14T04:29:07.021Z,18.92
2022-08-14T04:32:59.927Z,17.73
2022-08-14T04:34:35.160Z,16.35
2022-08-14T04:37:25.309Z,16.27
2022-08-14T04:40:12.453Z,15.32
2022-08-14T04:42:58.790Z,15.18
2022-08-14T04:48:39.112Z,15.52
2022-08-14T04:51:03.746Z,14.38
2022-08-14T04:53:34.951Z,15.27
2022-08-14T04:56:10.416Z,13.15
2022-08-14T04:58:40.320Z,13.35
2022-08-14T05:01:12.727Z,14.57
2022-08-14T05:03:50.593Z,14.20
2022-08-14T05:06:35.003Z,14.15
2022-08-14T05:09:07.273Z,14.57
2022-08-14T05:11:38.643Z,15.05
2022-08-14T05:14:16.691Z,14.98
2022-08-14T05:16:59.234Z,15.40
2022-08-14T05:19:31.854Z,14.15
2022-08-14T05:22:16.640Z,14.88
2022-08-14T05:24:50.414Z,15.90
2022-08-14T05:27:22.749Z,15.88
2022-08-14T05:29:53.885Z,15.63
2022-08-14T05:32:27.400Z,16.10
2022-08-14T05:34:59.252Z,16.25
2022-08-14T05:37:29.550Z,15.55
2022-08-14T05:40:00.575Z,16.10
2022-08-14T05:42:32.028Z,16.35
2022-08-14T05:45:17.432Z,14.68
2022-08-14T05:47:45.779Z,15.63
2022-08-14T05:50:20.734Z,15.15
2022-08-14T05:52:51.076Z,14.20
2022-08-14T05:55:22.734Z,13.52
2022-08-14T05:57:53.910Z,14.20
2022-08-14T06:00:24.910Z,12.50
2022-08-14T06:02:57.590Z,13.40
2022-08-14T06:05:28.973Z,13.80
2022-08-14T06:07:57.898Z,15.27
2022-08-14T06:10:29.367Z,15.82
2022-08-14T06:12:59.056Z,15.52
2022-08-14T06:15:30.287Z,13.02
2022-08-14T06:18:00.317Z,12.45
2022-08-14T06:20:31.340Z,14.00
2022-08-14T06:23:03.011Z,12.40
2022-08-14T06:25:32.656Z,15.98
2022-08-14T06:28:03.824Z,13.75
2022-08-14T06:30:46.289Z,16.17
2022-08-14T06:33:18.090Z,14.25
2022-08-14T06:35:50.165Z,15.35
2022-08-14T06:38:19.758Z,15.02
2022-08-14T06:40:51.753Z,12.60
2022-08-14T06:43:27.042Z,13.30
2022-08-14T06:45:58.189Z,13.63
2022-08-14T06:48:29.212Z,14.48
2022-08-14T06:51:02.864Z,11.02
2022-08-14T06:53:31.999Z,12.77
2022-08-14T06:56:02.073Z,13.48
2022-08-14T06:58:32.499Z,13.25
2022-08-14T07:01:27.489Z,13.02
2022-08-14T07:04:23.737Z,12.80
2022-08-14T07:06:58.982Z,12.55
2022-08-14T07:12:44.861Z,10.32
2022-08-14T07:15:01.993Z,10.63
2022-08-14T07:17:31.913Z,12.50
2022-08-14T07:20:02.821Z,11.13
2022-08-14T07:22:56.370Z,10.18
2022-08-14T07:25:21.341Z,7.47
2022-08-14T07:27:50.030Z,7.60
2022-08-14T07:30:33.906Z,7.03
2022-08-14T07:33:04.012Z,7.72
2022-08-14T07:35:43.057Z,7.28
2022-08-14T07:38:24.684Z,7.22
2022-08-14T07:40:53.727Z,6.90
2022-08-14T07:43:23.075Z,7.70
2022-08-14T07:45:54.022Z,7.40
2022-08-14T07:48:25.127Z,7.63
2022-08-14T07:51:02.039Z,7.88
2022-08-14T07:53:36.495Z,7.38
2022-08-14T07:56:09.171Z,8.38
2022-08-14T07:58:51.392Z,7.97
2022-08-14T08:01:20.749Z,8.48
2022-08-14T08:03:59.376Z,7.78
2022-08-14T08:06:29.936Z,7.80
2022-08-14T08:09:03.142Z,7.93
2022-08-14T08:11:37.413Z,7.55
2022-08-14T08:14:10.665Z,7.97
2022-08-14T08:16:51.001Z,8.07
2022-08-14T08:19:19.986Z,8.82
2022-08-14T08:21:48.444Z,7.85
2022-08-14T08:24:19.674Z,7.75
2022-08-14T08:26:50.350Z,7.68
2022-08-14T08:29:28.696Z,8.20
2022-08-14T08:32:01.970Z,7.80
2022-08-14T08:34:46.190Z,7.75
2022-08-14T08:37:15.672Z,7.13
2022-08-14T08:40:03.324Z,7.95
2022-08-14T08:42:38.365Z,7.38
2022-08-14T08:45:12.069Z,8.13
2022-08-14T08:47:41.637Z,7.72
2022-08-14T08:50:31.459Z,7.60
2022-08-14T08:53:02.531Z,7.45
2022-08-14T08:55:35.013Z,7.30
2022-08-14T08:58:16.146Z,6.68
2022-08-14T09:00:49.617Z,6.82
2022-08-14T09:03:20.852Z,6.90
2022-08-14T09:05:54.685Z,6.00
2022-08-14T09:08:31.632Z,6.65
2022-08-14T09:11:19.174Z,5.93
2022-08-14T09:13:52.045Z,5.95
2022-08-14T09:16:23.731Z,6.07
2022-08-14T09:18:54.616Z,6.00
2022-08-14T09:21:23.828Z,6.90
2022-08-14T09:24:28.314Z,6.75
2022-08-14T09:26:49.198Z,6.38
2022-08-14T09:29:19.969Z,6.20
2022-08-14T09:31:57.757Z,7.10
2022-08-14T09:34:59.110Z,6.07
2022-08-14T09:37:46.346Z,6.32
2022-08-14T09:40:24.186Z,6.13
2022-08-14T09:43:05.421Z,7.15
2022-08-14T09:45:52.821Z,7.07
2022-08-14T09:48:29.878Z,6.85
2022-08-14T09:54:17.726Z,6.32
2022-08-14T09:56:31.744Z,6.63
2022-08-14T09:59:15.214Z,6.90
2022-08-14T10:01:46.269Z,7.00
2022-08-14T10:04:33.689Z,5.97
2022-08-14T10:07:05.433Z,6.68
2022-08-14T10:09:34.953Z,6.45
2022-08-14T10:12:13.382Z,6.80
2022-08-14T10:14:56.867Z,6.40
2022-08-14T10:17:33.034Z,6.45
2022-08-14T10:20:40.775Z,5.97
2022-08-14T10:23:12.075Z,6.47
2022-08-14T10:25:45.317Z,6.55
2022-08-14T10:28:39.140Z,7.38
2022-08-14T10:31:25.687Z,7.13
2022-08-14T10:34:03.109Z,7.57
2022-08-14T10:36:36.924Z,7.03
2022-08-14T10:39:09.774Z,7.72
2022-08-14T10:41:48.479Z,7.15
2022-08-14T10:44:29.785Z,7.97
2022-08-14T10:47:39.809Z,7.40
2022-08-14T10:50:00.028Z,7.53
2022-08-14T10:52:33.993Z,7.60
2022-08-14T10:55:14.312Z,7.68
2022-08-14T10:57:51.504Z,7.85
2022-08-14T11:00:29.934Z,7.30
2022-08-14T11:03:09.885Z,7.15
2022-08-14T11:05:43.273Z,6.97
2022-08-14T11:08:13.024Z,6.55
2022-08-14T11:10:45.634Z,6.80
2022-08-14T11:13:20.056Z,7.38
2022-08-14T11:15:49.301Z,6.85
2022-08-14T11:18:20.493Z,6.75
2022-08-14T11:20:57.303Z,6.63
2022-08-14T11:23:37.784Z,7.20
2022-08-14T11:26:08.146Z,6.57
2022-08-14T11:28:47.682Z,6.80
2022-08-14T11:31:20.240Z,6.43
2022-08-14T11:33:57.837Z,6.25
2022-08-14T11:36:57.150Z,6.43
2022-08-14T11:39:23.108Z,6.03
2022-08-14T11:42:56.960Z,6.57
2022-08-14T11:44:53.865Z,5.50
2022-08-14T11:47:24.897Z,6.18
2022-08-14T11:49:56.297Z,6.10
2022-08-14T11:52:40.354Z,6.00
2022-08-14T11:55:12.789Z,5.95
2022-08-14T11:57:42.407Z,5.38
2022-08-14T12:00:31.842Z,5.85
2022-08-14T12:03:04.329Z,5.85
2022-08-14T12:05:36.629Z,6.00
2022-08-14T12:08:11.983Z,6.15
2022-08-14T12:10:45.182Z,5.60
2022-08-14T12:13:17.332Z,6.03
2022-08-14T12:15:51.523Z,5.60
2022-08-14T12:18:32.433Z,5.07
2022-08-14T12:21:15.709Z,4.85
2022-08-14T12:23:45.001Z,5.80
2022-08-14T12:26:39.844Z,6.38
2022-08-14T12:29:08.592Z,5.78
2022-08-14T12:31:44.672Z,5.63
2022-08-14T12:34:20.735Z,5.22
2022-08-14T12:37:04.193Z,5.90
2022-08-14T12:39:40.305Z,4.88
2022-08-14T12:42:11.985Z,5.78
2022-08-14T12:45:00.086Z,5.38
2022-08-14T12:47:32.507Z,4.70
2022-08-14T12:50:01.621Z,5.88
2022-08-14T12:52:41.596Z,5.55
2022-08-14T12:55:22.420Z,5.20
2022-08-14T12:58:06.125Z,5.22
2022-08-14T13:01:14.209Z,5.65
2022-08-14T13:03:43.800Z,5.28
2022-08-14T13:06:14.715Z,4.97
2022-08-14T13:08:53.249Z,5.35
2022-08-14T13:11:23.815Z,5.10
2022-08-14T13:13:57.836Z,5.28
2022-08-14T13:16:37.758Z,5.05
2022-08-14T13:19:09.714Z,4.93
2022-08-14T13:22:05.542Z,5.53
2022-08-14T13:24:33.697Z,4.95
2022-08-14T13:27:04.861Z,5.18
2022-08-14T13:29:40.564Z,5.40
2022-08-14T13:32:10.314Z,5.35
2022-08-14T13:34:41.270Z,5.72
2022-08-14T13:37:09.711Z,5.22
2022-08-14T13:39:40.145Z,5.03
2022-08-14T13:42:13.851Z,5.18
2022-08-14T13:44:43.388Z,6.32
2022-08-14T13:47:15.402Z,5.97
2022-08-14T13:49:57.730Z,6.10
2022-08-14T13:52:59.081Z,5.95
2022-08-14T13:55:19.664Z,6.57
2022-08-14T13:57:59.484Z,6.10
2022-08-14T14:00:35.777Z,6.45
2022-08-14T14:03:08.052Z,6.38
2022-08-14T14:05:53.207Z,6.18
2022-08-14T14:08:45.650Z,5.53
2022-08-14T14:11:16.218Z,6.05
2022-08-14T14:13:46.466Z,6.72
2022-08-14T14:16:26.380Z,6.20
2022-08-14T14:19:08.925Z,6.55
2022-08-14T14:21:40.619Z,6.30
2022-08-14T14:24:11.796Z,6.80
2022-08-14T14:26:47.730Z,5.85
2022-08-14T14:29:24.070Z,5.97
2022-08-14T14:31:54.778Z,6.35
2022-08-14T14:34:30.107Z,6.40
2022-08-14T14:37:04.901Z,5.90
2022-08-14T14:39:37.984Z,6.53
2022-08-14T14:42:32.294Z,6.95
2022-08-14T14:45:11.350Z,6.55
2022-08-14T14:47:39.929Z,6.43
2022-08-14T14:50:11.199Z,6.38
2022-08-14T14:52:42.357Z,6.30
2022-08-14T14:55:13.499Z,5.75
2022-08-14T14:57:52.202Z,6.80
2022-08-14T15:00:23.369Z,6.80
2022-08-14T15:02:53.456Z,7.03
2022-08-14T15:05:28.652Z,6.50
2022-08-14T15:07:57.851Z,6.57
2022-08-14T15:10:31.713Z,6.82
2022-08-14T15:13:07.227Z,6.78
2022-08-14T15:15:37.317Z,6.30
2022-08-14T15:18:35.886Z,6.22
2022-08-14T15:20:57.541Z,6.25
2022-08-14T15:23:43.651Z,6.15
2022-08-14T15:26:24.230Z,6.03
2022-08-14T15:29:05.002Z,7.05
2022-08-14T15:31:36.191Z,6.88
2022-08-14T15:34:45.498Z,6.82
2022-08-14T15:37:04.765Z,6.45
2022-08-14T15:39:38.123Z,6.65
2022-08-14T15:42:14.581Z,5.93
2022-08-14T15:44:58.259Z,6.20
2022-08-14T15:47:31.603Z,6.75
2022-08-14T15:50:01.736Z,6.82
2022-08-14T15:52:35.229Z,6.15
2022-08-14T15:55:05.924Z,6.40
2022-08-14T15:57:35.186Z,6.15
2022-08-14T16:00:40.457Z,6.80
2022-08-14T16:03:16.507Z,8.00
2022-08-14T16:05:45.930Z,7.15
2022-08-14T16:08:29.340Z,6.10
2022-08-14T16:10:59.655Z,6.53
2022-08-14T16:13:39.770Z,5.97
2022-08-14T16:16:47.322Z,6.30
2022-08-14T16:19:10.881Z,5.97
2022-08-14T16:21:58.412Z,6.00
2022-08-14T16:24:34.878Z,5.80
2022-08-14T16:27:05.641Z,6.38
2022-08-14T16:29:38.530Z,6.28
2022-08-14T16:34:57.732Z,5.93
2022-08-14T16:37:31.106Z,6.65
2022-08-14T16:40:03.268Z,6.85
2022-08-14T16:42:40.081Z,6.22
2022-08-14T16:45:25.837Z,6.32
2022-08-14T16:47:55.892Z,6.25
2022-08-14T16:50:43.309Z,7.30
2022-08-14T16:53:17.778Z,6.22
2022-08-14T16:55:53.877Z,5.72
2022-08-14T16:58:30.187Z,6.10
2022-08-14T17:01:24.362Z,6.80
2022-08-14T17:03:58.234Z,5.70
2022-08-14T17:06:45.919Z,6.53
2022-08-14T17:09:36.567Z,6.28
2022-08-14T17:12:28.697Z,8.60
2022-08-14T17:15:10.553Z,6.20
2022-08-14T17:17:49.938Z,6.45
2022-08-14T17:20:53.476Z,6.63
2022-08-14T17:23:16.581Z,5.63
2022-08-14T17:25:50.727Z,5.65
2022-08-14T17:28:52.010Z,5.53
2022-08-14T17:31:09.315Z,6.03
2022-08-14T17:33:40.835Z,5.95
2022-08-14T17:36:21.498Z,5.55
2022-08-14T17:39:06.624Z,5.13
2022-08-14T17:41:38.758Z,5.25
2022-08-14T17:44:33.985Z,6.13
2022-08-14T17:47:14.861Z,5.75
2022-08-14T17:49:51.971Z,6.18
2022-08-14T17:52:36.029Z,5.35
2022-08-14T17:55:12.545Z,5.40
2022-08-14T17:58:00.667Z,6.35
2022-08-14T18:00:30.628Z,5.00
2022-08-14T18:03:00.213Z,5.60
2022-08-14T18:06:08.991Z,6.15
2022-08-14T18:08:32.170Z,6.05
2022-08-14T18:11:03.323Z,5.88
2022-08-14T18:13:51.461Z,5.22
2022-08-14T18:16:22.359Z,5.53
2022-08-14T18:18:52.137Z,5.55
2022-08-14T18:21:42.448Z,6.30
2022-08-14T18:24:29.101Z,5.68
2022-08-14T18:27:08.780Z,6.10
2022-08-14T18:29:42.804Z,6.65
2022-08-14T18:32:47.474Z,6.68
2022-08-14T18:35:46.021Z,7.70
2022-08-14T18:38:26.075Z,7.40
2022-08-14T18:41:37.071Z,8.20
2022-08-14T18:44:10.716Z,7.13
2022-08-14T18:47:20.875Z,7.05
2022-08-14T18:50:26.522Z,6.63
2022-08-14T18:53:06.957Z,7.78
2022-08-14T18:56:00.097Z,7.38
2022-08-14T18:58:48.512Z,7.65
2022-08-14T19:03:53.172Z,7.53
2022-08-14T19:06:35.858Z,7.18
2022-08-14T19:09:05.519Z,8.38
2022-08-14T19:11:50.328Z,7.60
2022-08-14T19:14:48.426Z,7.22
2022-08-14T19:17:43.341Z,7.53
2022-08-14T19:20:47.524Z,7.90
2022-08-14T19:23:19.216Z,7.60
2022-08-14T19:25:54.390Z,7.63
2022-08-14T19:28:31.177Z,7.32
2022-08-14T19:31:42.271Z,7.93
2022-08-14T19:34:29.692Z,7.63
2022-08-14T19:37:10.122Z,7.40
2022-08-14T19:39:53.762Z,7.40
2022-08-14T19:42:28.045Z,7.40
2022-08-14T19:44:58.912Z,6.85
2022-08-14T19:47:41.268Z,7.05
2022-08-14T19:50:30.749Z,7.47
2022-08-14T19:53:11.132Z,8.02
2022-08-14T19:55:45.937Z,7.55
2022-08-14T19:58:14.686Z,7.32
2022-08-14T20:00:52.160Z,7.50
2022-08-14T20:03:24.234Z,7.45
2022-08-14T20:06:05.384Z,7.32
2022-08-14T20:09:05.199Z,7.32
2022-08-14T20:12:00.369Z,7.63
2022-08-14T20:14:22.888Z,8.32
2022-08-14T20:17:03.270Z,7.57
2022-08-14T20:19:38.118Z,7.72
2022-08-14T20:22:37.194Z,7.85
2022-08-14T20:25:14.044Z,8.18
2022-08-14T20:27:45.478Z,7.80
2022-08-14T20:30:29.639Z,7.40
2022-08-14T20:33:07.897Z,8.85
2022-08-14T20:35:46.877Z,8.25
2022-08-14T20:38:29.133Z,8.27
2022-08-14T20:41:06.914Z,7.88
2022-08-14T20:43:57.495Z,8.52
2022-08-14T20:46:31.201Z,8.73
2022-08-14T20:49:01.226Z,8.73
2022-08-14T20:51:43.625Z,8.13
2022-08-14T20:54:34.151Z,9.32
2022-08-14T20:57:08.236Z,8.82
2022-08-14T20:59:43.533Z,9.05
2022-08-14T21:02:29.743Z,9.20
2022-08-14T21:05:00.749Z,8.68
2022-08-14T21:07:36.714Z,8.88
2022-08-14T21:10:35.863Z,8.98
2022-08-14T21:13:26.769Z,8.75
2022-08-14T21:15:57.235Z,9.15
2022-08-14T21:18:29.430Z,8.88
2022-08-14T21:20:59.868Z,8.48
2022-08-14T21:23:32.400Z,9.30
2022-08-14T21:26:03.622Z,9.48
2022-08-14T21:28:35.300Z,9.00
2022-08-14T21:31:05.517Z,9.27
2022-08-14T21:33:37.273Z,7.88
2022-08-14T21:36:07.969Z,9.27
2022-08-14T21:38:42.411Z,8.90
2022-08-14T21:41:42.935Z,9.73
2022-08-14T21:44:17.680Z,9.20
2022-08-14T21:46:50.393Z,9.35
2022-08-14T21:49:22.572Z,8.93
2022-08-14T21:52:00.966Z,9.05
2022-08-14T21:54:49.921Z,8.98
2022-08-14T21:57:53.514Z,9.95
2022-08-14T22:00:35.449Z,9.35
2022-08-14T22:03:05.653Z,9.93
2022-08-14T22:05:35.645Z,9.23
2022-08-14T22:08:06.704Z,9.75
2022-08-14T22:10:36.742Z,11.18
2022-08-14T22:13:05.479Z,10.45
2022-08-14T22:15:35.668Z,11.07
2022-08-14T22:18:05.425Z,10.65
2022-08-14T22:20:36.437Z,10.50
2022-08-14T22:23:08.802Z,10.05
2022-08-14T22:25:41.052Z,9.30
2022-08-14T22:28:13.097Z,9.20
2022-08-14T22:30:41.731Z,10.00
2022-08-14T22:33:13.240Z,12.27
2022-08-14T22:35:44.037Z,10.25
2022-08-14T22:38:37.862Z,10.30
2022-08-14T22:41:26.573Z,11.43
2022-08-14T22:43:52.333Z,11.73
2022-08-14T22:46:21.871Z,11.35
2022-08-14T22:48:51.336Z,11.40
2022-08-14T22:51:22.676Z,11.82
2022-08-14T22:53:53.176Z,10.68
2022-08-14T22:56:30.171Z,11.50
2022-08-14T22:59:00.967Z,11.20
2022-08-14T23:01:55.065Z,11.43
2022-08-14T23:04:34.884Z,10.90
2022-08-14T23:07:21.797Z,12.52
2022-08-14T23:09:56.810Z,11.70
2022-08-14T23:12:31.850Z,14.45
2022-08-14T23:15:03.875Z,11.57
2022-08-14T23:17:38.812Z,12.18
2022-08-14T23:20:18.466Z,12.13
2022-08-14T23:22:51.653Z,11.57
2022-08-14T23:25:57.392Z,12.93
2022-08-14T23:28:34.157Z,12.23
2022-08-14T23:31:02.321Z,12.63
2022-08-14T23:33:36.062Z,13.07
2022-08-14T23:36:28.186Z,12.43
2022-08-14T23:39:02.152Z,12.32
2022-08-14T23:41:46.566Z,10.80
2022-08-14T23:44:23.605Z,10.77
2022-08-14T23:46:52.676Z,12.48
2022-08-14T23:49:25.446Z,10.70
2022-08-14T23:52:49.582Z,11.50
2022-08-14T23:54:48.306Z,11.00
2022-08-14T23:57:19.354Z,11.25
2022-08-14T23:59:54.398Z,11.73
